createdAt,value
2023-05-24T00:00:30.871Z,6.24
2023-05-24T00:10:32.953Z,5.81
2023-05-24T00:20:35.063Z,5.75
2023-05-24T00:30:37.295Z,5.88
2023-05-24T00:40:39.501Z,5.57
2023-05-24T00:50:41.911Z,5.29
2023-05-24T01:00:44.944Z,5.26
2023-05-24T01:10:47.056Z,5.17
2023-05-24T01:20:52.369Z,5.28
2023-05-24T01:30:55.783Z,5.18
2023-05-24T01:41:05.873Z,4.50
2023-05-24T01:51:11.584Z,4.56
2023-05-24T02:01:14.285Z,4.91
2023-05-24T02:11:16.553Z,5.00
2023-05-24T02:21:18.890Z,4.84
2023-05-24T02:31:21.646Z,4.61
2023-05-24T02:41:24.036Z,4.39
2023-05-24T02:51:27.209Z,4.23
2023-05-24T03:01:29.322Z,4.24
2023-05-24T03:11:33.533Z,4.33
2023-05-24T03:21:36.295Z,4.26
2023-05-24T03:31:38.690Z,4.46
2023-05-24T03:41:41.426Z,4.29
2023-05-24T03:51:46.499Z,4.48
2023-05-24T04:01:48.734Z,4.48
2023-05-24T04:11:51.109Z,4.79
2023-05-24T04:21:53.209Z,4.48
2023-05-24T04:31:56.117Z,4.80
2023-05-24T04:42:00.667Z,5.17
2023-05-24T04:52:02.773Z,5.39
2023-05-24T05:02:05.500Z,6.11
2023-05-24T05:12:07.934Z,6.43
2023-05-24T05:22:10.020Z,5.93
2023-05-24T05:32:12.170Z,5.34
2023-05-24T05:42:14.307Z,6.58
2023-05-24T05:52:16.389Z,6.79
2023-05-24T06:02:24.716Z,6.44
2023-05-24T06:12:26.929Z,7.13
2023-05-24T06:22:29.734Z,6.81
2023-05-24T06:32:31.845Z,7.71
2023-05-24T06:42:37.611Z,7.75
2023-05-24T06:52:41.361Z,7.25
2023-05-24T07:02:43.699Z,7.87
2023-05-24T07:12:46.099Z,8.31
2023-05-24T07:22:48.219Z,8.18
2023-05-24T07:32:50.566Z,7.81
2023-05-24T07:42:52.740Z,8.19
2023-05-24T07:52:56.930Z,8.31
2023-05-24T08:03:00.023Z,8.06
2023-05-24T08:13:03.292Z,7.73
2023-05-24T08:23:05.494Z,9.41
2023-05-24T08:33:07.772Z,9.25
2023-05-24T08:43:11.937Z,9.39
2023-05-24T08:53:14.529Z,8.69
2023-05-24T09:03:17.173Z,8.90
2023-05-24T09:13:20.835Z,9.62
2023-05-24T09:23:25.014Z,9.24
2023-05-24T09:33:34.294Z,9.08
2023-05-24T09:43:48.545Z,10.02
2023-05-24T09:53:52.675Z,9.39
2023-05-24T10:03:57.072Z,9.49
2023-05-24T10:13:59.554Z,9.31
2023-05-24T10:24:02.415Z,9.06
2023-05-24T10:34:08.238Z,9.47
2023-05-24T10:44:18.759Z,9.84
2023-05-24T10:54:25.153Z,9.90
2023-05-24T11:04:31.794Z,10.02
2023-05-24T11:14:39.779Z,10.21
2023-05-24T11:24:42.164Z,10.01
2023-05-24T11:34:46.582Z,10.06
2023-05-24T11:44:49.875Z,9.91
2023-05-24T11:54:52.177Z,9.70
2023-05-24T12:04:55.141Z,10.07
2023-05-24T12:14:57.561Z,10.74
2023-05-24T12:24:59.837Z,10.57
2023-05-24T12:35:04.257Z,10.41
2023-05-24T12:45:07.277Z,10.56
2023-05-24T12:55:09.667Z,10.17
2023-05-24T13:05:12.241Z,10.24
2023-05-24T13:15:15.118Z,10.11
2023-05-24T13:25:17.367Z,10.19
2023-05-24T13:35:19.544Z,9.90
2023-05-24T13:45:21.787Z,10.15
2023-05-24T13:55:24.237Z,10.19
2023-05-24T14:05:29.703Z,10.17
2023-05-24T14:15:33.139Z,10.85
2023-05-24T14:25:35.745Z,10.61
2023-05-24T14:35:40.152Z,11.24
2023-05-24T14:45:43.302Z,11.29
2023-05-24T14:55:46.214Z,11.14
2023-05-24T15:05:49.093Z,11.26
2023-05-24T15:15:53.040Z,11.60
2023-05-24T15:25:55.268Z,12.10
2023-05-24T15:35:57.443Z,11.85
2023-05-24T15:45:59.806Z,11.49
2023-05-24T15:56:03.128Z,12.00
2023-05-24T16:06:06.027Z,12.32
2023-05-24T16:16:08.284Z,11.30
2023-05-24T16:26:10.601Z,11.94
2023-05-24T16:36:14.402Z,11.64
2023-05-24T16:46:16.816Z,11.15
2023-05-24T16:56:20.502Z,11.63
2023-05-24T17:06:22.785Z,11.83
2023-05-24T17:16:25.365Z,11.14
2023-05-24T17:26:28.043Z,11.59
2023-05-24T17:36:33.381Z,11.70
2023-05-24T17:46:37.857Z,12.12
2023-05-24T17:56:42.296Z,11.92
2023-05-24T18:06:45.321Z,11.56
2023-05-24T18:16:47.620Z,10.82
2023-05-24T18:26:49.795Z,10.11
2023-05-24T18:36:54.706Z,10.76
2023-05-24T18:46:58.018Z,10.87
2023-05-24T18:57:03.048Z,10.62
2023-05-24T19:07:05.461Z,10.25
2023-05-24T19:17:07.636Z,9.60
2023-05-24T19:27:09.790Z,9.41
2023-05-24T19:37:11.971Z,9.16
2023-05-24T19:47:14.148Z,9.56
2023-05-24T19:57:16.254Z,9.90
2023-05-24T20:07:18.480Z,9.22
2023-05-24T20:17:20.777Z,9.35
2023-05-24T20:27:23.004Z,9.50
2023-05-24T20:37:25.781Z,9.19
2023-05-24T20:47:31.144Z,9.32
2023-05-24T20:57:33.939Z,8.68
2023-05-24T21:07:36.136Z,8.27
2023-05-24T21:17:39.111Z,8.42
2023-05-24T21:27:41.372Z,8.45
2023-05-24T21:37:43.716Z,7.97
2023-05-24T21:47:46.057Z,7.47
2023-05-24T21:57:48.467Z,7.60
2023-05-24T22:07:57.480Z,6.95
2023-05-24T22:18:08.203Z,7.42
2023-05-24T22:28:10.633Z,7.20
2023-05-24T22:38:12.733Z,7.13
2023-05-24T22:48:14.868Z,6.88
2023-05-24T22:58:20.988Z,6.90
2023-05-24T23:08:25.483Z,6.73
2023-05-24T23:18:27.761Z,6.67
2023-05-24T23:28:30.003Z,6.41
2023-05-24T23:38:32.139Z,6.94
2023-05-24T23:48:34.282Z,6.58
2023-05-24T23:58:37.431Z,7.36
